KMRN/MRN METAR and TAF weather

Enter ICAO airport designator
Station Type Date Time Source
KMRN METAR 2021/09/28 16:15 UTC NOAA

KMRN 281615Z AUTO 00000KT 10SM CLR 26/15 A3007 RMK AO2 T02640152


Station Type Date Time Source
KMRN Decoded METAR 2021/09/28 16:15 UTC NOAA

Morganton, Morganton-Lenoir Airport, NC, United States (KMRN) 35-49-17N 081-36-39W
Sep 28, 2021 - 12:15 PM EDT / 2021.09.28 1615 UTC
Wind: Calm:0
Visibility: 10 mile(s):0
Sky conditions: clear
Temperature: 79.5 F (26.4 C)
Dew Point: 59.4 F (15.2 C)
Relative Humidity: 50%
Pressure (altimeter): 30.07 in. Hg (1018 hPa)
ob: KMRN 281615Z AUTO 00000KT 10SM CLR 26/15 A3007 RMK AO2 T02640152
cycle: 16

Station Type Date Time Source
KMRN TAF UTC NOAA

Error!

Example: see airport list